Hickory, Louisiana
Current Conditions -  °F | °C
As of 10:15 AM on Tuesday 21 Oct 2014 (Local Time) from KOPL Reporting Station
Clear Clear  
Wind Chill: 70°   Ceiling: Unl
Heat Index: 70°   Visibility: 10mi
Dew Point: 55°   Wind: 6mph
Humidity: 59%   Direction: 80°E
Pressure: 30.09"   Gusts: NA
Location:  30.9908°N, 92.0816°W
Report Text: KOPL 211515Z AUTO 08005KT 10SM CLR 21/13 A3009 RMK AO2 T02120128
Loading
Personal Weather Stations






























Interactive Weather Map
Tropical Storm Tracking
New forecast layout! Learn more

10-Day Weather Forecast

Advertisements
Track Severe Weather on mobile